Time;durP1;ratioP1;P1;durP2;ratioP2;P2;SDS_P1;SDS_P2;PMS_P1;PMS_P2;Temp;Humidity;BMP_temperature;BMP_pressure;BME280_temperature;BME280_humidity;BME280_pressure;Samples;Min_cycle;Max_cycle;Signal;HPM_P1;HPM_P2
2023/10/04 00:00:14;;;;;;;7.43;1.45;;;;;;;21.16;44.87;102289.47;4974998;28;20487;-59
2023/10/04 00:02:39;;;;;;;4.25;1.17;;;;;;;21.17;44.07;102294.75;4960446;28;20498;-59
2023/10/04 00:05:08;;;;;;;4.07;1.33;;;;;;;21.14;43.98;102299.66;4991674;28;20034;-59
2023/10/04 00:07:33;;;;;;;5.97;1.40;;;;;;;21.11;44.89;102297.25;4990655;28;20043;-60
2023/10/04 00:10:04;;;;;;;3.83;1.00;;;;;;;21.07;44.43;102307.66;4974788;28;20046;-60
2023/10/04 00:12:29;;;;;;;5.85;1.30;;;;;;;21.04;44.70;102307.94;4990188;28;20495;-60
2023/10/04 00:14:56;;;;;;;3.88;1.00;;;;;;;21.02;45.13;102309.13;4981198;28;20092;-60
2023/10/04 00:17:21;;;;;;;6.28;1.38;;;;;;;20.98;44.70;102316.75;4978148;28;20387;-60
2023/10/04 00:19:47;;;;;;;5.07;1.35;;;;;;;20.95;44.79;102319.78;4977958;28;20027;-59
2023/10/04 00:22:13;;;;;;;6.28;1.20;;;;;;;20.90;44.85;102316.72;4977671;28;20034;-59
2023/10/04 00:24:39;;;;;;;6.95;0.90;;;;;;;20.85;44.91;102310.88;4993667;28;20053;-60
2023/10/04 00:27:04;;;;;;;3.72;0.93;;;;;;;20.85;44.65;102319.06;4978625;28;20450;-60
2023/10/04 00:29:30;;;;;;;7.07;1.13;;;;;;;20.83;45.10;102321.94;4993161;28;20041;-60
2023/10/04 00:31:56;;;;;;;7.03;1.70;;;;;;;20.83;44.79;102323.78;4994889;28;20030;-60
2023/10/04 00:34:22;;;;;;;6.78;1.00;;;;;;;20.79;45.39;102325.13;4993674;28;20042;-60
2023/10/04 00:36:48;;;;;;;8.65;2.78;;;;;;;20.79;45.59;102325.13;4993600;28;20039;-60
2023/10/04 00:39:13;;;;;;;3.42;0.85;;;;;;;20.74;45.18;102330.22;4994782;28;20039;-59
2023/10/04 00:41:40;;;;;;;10.10;1.63;;;;;;;20.74;45.44;102330.22;4992579;28;20037;-59
2023/10/04 00:44:07;;;;;;;2.15;1.05;;;;;;;20.73;45.30;102332.06;4993199;28;20034;-60
2023/10/04 00:46:35;;;;;;;3.85;1.20;;;;;;;20.73;45.00;102337.53;4993504;28;20552;-60
2023/10/04 00:49:02;;;;;;;11.35;1.13;;;;;;;20.72;45.49;102334.94;4994519;28;20038;-60
2023/10/04 00:51:35;;;;;;;5.68;1.30;;;;;;;20.69;45.92;102336.13;4993302;28;20043;-60
2023/10/04 00:54:07;;;;;;;5.20;1.08;;;;;;;20.67;45.28;102337.28;4993790;28;20499;-60
2023/10/04 00:56:34;;;;;;;6.95;1.40;;;;;;;20.60;45.78;102334.34;4977550;28;20045;-59
2023/10/04 00:59:03;;;;;;;4.78;0.88;;;;;;;20.63;45.90;102342.19;5009404;28;20402;-59
2023/10/04 01:01:30;;;;;;;6.82;1.17;;;;;;;20.63;46.26;102338.63;4993064;28;20093;-60
2023/10/04 01:03:55;;;;;;;3.40;0.98;;;;;;;20.59;46.22;102346.25;4994363;28;20445;-60
2023/10/04 01:06:21;;;;;;;5.88;1.27;;;;;;;20.60;45.76;102347.13;4993115;28;20100;-59
2023/10/04 01:08:47;;;;;;;4.20;1.02;;;;;;;20.60;46.38;102352.56;4994194;28;20042;-60
2023/10/04 01:11:13;;;;;;;4.47;0.95;;;;;;;20.58;45.87;102341.81;4994054;28;20070;-60
2023/10/04 01:13:39;;;;;;;6.78;1.27;;;;;;;20.59;45.51;102350.84;4993025;28;20062;-59
2023/10/04 01:16:08;;;;;;;8.90;1.13;;;;;;;20.61;46.04;102351.53;4993055;28;20041;-60
2023/10/04 01:18:34;;;;;;;9.27;1.77;;;;;;;20.62;46.58;102351.41;4977382;28;20030;-59
2023/10/04 01:21:00;;;;;;;2.20;0.98;;;;;;;20.60;46.28;102344.41;4976730;28;20030;-59
2023/10/04 01:23:25;;;;;;;9.88;1.05;;;;;;;20.61;46.36;102343.38;4976582;28;20030;-60
2023/10/04 01:25:51;;;;;;;5.50;1.15;;;;;;;20.54;46.01;102342.28;4994230;28;20037;-60
2023/10/04 01:28:18;;;;;;;7.43;1.15;;;;;;;20.56;46.41;102348.44;4992896;28;20418;-59
2023/10/04 01:30:48;;;;;;;5.13;1.25;;;;;;;20.55;46.44;102354.88;4993087;28;20046;-59
2023/10/04 01:33:23;;;;;;;3.63;0.80;;;;;;;20.54;47.01;102356.78;4992649;28;20042;-59
2023/10/04 01:35:51;;;;;;;10.20;1.48;;;;;;;20.56;46.73;102359.31;4973356;28;20041;-59
2023/10/04 01:38:17;;;;;;;9.20;1.35;;;;;;;20.54;46.85;102358.63;5003492;28;20038;-59
2023/10/04 01:40:57;;;;;;;8.07;1.00;;;;;;;20.56;46.63;102353.88;4992737;28;20130;-60
2023/10/04 01:43:24;;;;;;;9.32;1.52;;;;;;;20.57;46.84;102363.78;4993536;28;20395;-60
2023/10/04 01:45:55;;;;;;;10.00;1.33;;;;;;;20.58;46.83;102354.56;4976661;28;20564;-60
2023/10/04 01:48:21;;;;;;;7.00;1.25;;;;;;;20.58;46.92;102354.56;4976426;28;20038;-59
2023/10/04 01:50:52;;;;;;;8.23;1.08;;;;;;;20.55;46.53;102357.59;4992108;28;20044;-60
2023/10/04 01:53:24;;;;;;;3.88;1.15;;;;;;;20.58;46.60;102360.88;4976806;28;20579;-60
2023/10/04 01:55:50;;;;;;;7.57;1.58;;;;;;;20.60;46.61;102358.84;4992599;28;20038;-60
2023/10/04 01:58:18;;;;;;;3.42;0.73;;;;;;;20.56;46.89;102356.59;4991975;28;20046;-62
2023/10/04 02:00:43;;;;;;;5.30;0.93;;;;;;;20.60;46.75;102368.91;4976183;28;20026;-60
2023/10/04 02:03:09;;;;;;;6.78;1.40;;;;;;;20.58;46.51;102355.44;4992228;28;20076;-60
2023/10/04 02:05:38;;;;;;;5.32;1.10;;;;;;;20.61;46.60;102359.69;4994555;28;20078;-60
2023/10/04 02:08:14;;;;;;;5.82;1.13;;;;;;;20.62;47.24;102353.25;4983254;28;20089;-60
2023/10/04 02:10:46;;;;;;;6.68;0.82;;;;;;;20.58;47.00;102352.69;4999126;28;20088;-59
2023/10/04 02:13:15;;;;;;;7.25;1.17;;;;;;;20.56;46.92;102348.44;4998706;28;20041;-60
2023/10/04 02:15:41;;;;;;;1.90;0.70;;;;;;;20.58;47.02;102355.44;4999225;28;20030;-59
2023/10/04 02:18:07;;;;;;;9.20;1.95;;;;;;;20.56;46.95;102345.72;5000413;28;20061;-60
2023/10/04 02:20:34;;;;;;;2.13;1.10;;;;;;;20.58;46.79;102351.84;4998707;28;20054;-59
2023/10/04 02:22:59;;;;;;;2.13;0.93;;;;;;;20.59;47.51;102356.28;4997727;28;20038;-60
2023/10/04 02:25:25;;;;;;;8.77;1.38;;;;;;;20.57;47.00;102353.75;4982524;28;20084;-60
2023/10/04 02:27:52;;;;;;;7.65;1.30;;;;;;;20.57;46.91;102355.59;4998819;28;20491;-59
2023/10/04 02:30:26;;;;;;;5.82;1.13;;;;;;;20.56;47.48;102345.72;4999704;28;20037;-60
2023/10/04 02:32:53;;;;;;;2.50;0.80;;;;;;;20.54;46.98;102354.06;4998611;28;20046;-59
2023/10/04 02:35:29;;;;;;;3.45;0.90;;;;;;;20.54;47.36;102358.63;4998739;28;20501;-60
2023/10/04 02:38:09;;;;;;;8.27;1.75;;;;;;;20.52;47.20;102363.38;4999676;28;20043;-59
2023/10/04 02:40:36;;;;;;;3.38;1.17;;;;;;;20.50;46.89;102357.22;4998559;28;20038;-60
2023/10/04 02:43:04;;;;;;;4.00;1.10;;;;;;;20.53;46.91;102356.91;4998563;28;20034;-59
2023/10/04 02:45:29;;;;;;;5.15;1.13;;;;;;;20.51;46.98;102350.78;4998302;28;20084;-59
2023/10/04 02:47:55;;;;;;;4.88;1.23;;;;;;;20.47;47.63;102346.63;4982058;28;20129;-60
2023/10/04 02:50:23;;;;;;;13.07;2.00;;;;;;;20.43;48.12;102350.69;4998598;28;20042;-59
2023/10/04 02:52:50;;;;;;;4.70;0.88;;;;;;;20.42;47.77;102349.84;4981996;28;20524;-59
2023/10/04 02:55:19;;;;;;;8.40;1.13;;;;;;;20.42;47.43;102348.97;4998332;28;20038;-59
2023/10/04 02:57:46;;;;;;;5.32;1.27;;;;;;;20.42;47.59;102348.97;4982560;28;20034;-59
2023/10/04 03:00:17;;;;;;;13.60;1.05;;;;;;;20.42;47.10;102348.97;4982033;28;20403;-59
2023/10/04 03:02:47;;;;;;;4.55;1.00;;;;;;;20.42;47.84;102349.84;4993265;28;20038;-59
2023/10/04 03:05:15;;;;;;;5.55;1.48;;;;;;;20.41;47.65;102339.13;4981120;28;20045;-59
2023/10/04 03:07:41;;;;;;;6.20;1.00;;;;;;;20.42;47.86;102343.53;4998063;28;20087;-59
2023/10/04 03:10:10;;;;;;;8.10;1.52;;;;;;;20.40;47.90;102340.13;4998136;28;20037;-59
2023/10/04 03:12:36;;;;;;;4.40;1.05;;;;;;;20.40;47.84;102353.72;4998035;28;20041;-59
2023/10/04 03:15:02;;;;;;;6.40;1.27;;;;;;;20.36;47.52;102355.91;4982174;28;20035;-60
2023/10/04 03:17:27;;;;;;;3.80;1.48;;;;;;;20.33;47.86;102354.34;4979234;28;20026;-59
2023/10/04 03:19:53;;;;;;;5.28;1.50;;;;;;;20.30;47.64;102357.38;4995455;28;20065;-59
2023/10/04 03:22:22;;;;;;;3.42;1.02;;;;;;;20.30;47.53;102360.09;4994962;28;20030;-59
2023/10/04 03:24:49;;;;;;;7.97;1.25;;;;;;;20.29;47.65;102372.03;5011417;28;20518;-60
2023/10/04 03:27:14;;;;;;;5.57;1.52;;;;;;;20.30;47.21;102375.56;4995092;28;20062;-59
2023/10/04 03:29:40;;;;;;;6.70;1.10;;;;;;;20.26;47.44;102366.88;4995247;28;20108;-59
2023/10/04 03:32:06;;;;;;;3.60;1.02;;;;;;;20.28;47.69;102381.19;5002517;28;20034;-59
2023/10/04 03:34:32;;;;;;;1.83;0.88;;;;;;;20.24;48.18;102371.59;4995531;28;20112;-59
2023/10/04 03:37:08;;;;;;;6.85;1.23;;;;;;;20.27;47.53;102379.47;4997231;28;20044;-61
2023/10/04 03:39:37;;;;;;;3.50;1.02;;;;;;;20.28;48.07;102369.44;4998404;28;20094;-60
2023/10/04 03:42:04;;;;;;;3.70;0.77;;;;;;;20.27;47.82;102374.03;4998271;28;20038;-62
2023/10/04 03:44:29;;;;;;;7.10;1.63;;;;;;;20.26;47.91;102387.78;4981584;28;20053;-61
2023/10/04 03:46:55;;;;;;;7.60;1.35;;;;;;;20.25;47.53;102386.94;4996957;28;20058;-61
2023/10/04 03:49:21;;;;;;;7.82;1.92;;;;;;;20.21;47.70;102390.94;4995948;28;20039;-60
2023/10/04 03:51:52;;;;;;;9.45;1.30;;;;;;;20.24;47.50;102390.66;4996507;28;20031;-68
2023/10/04 03:54:18;;;;;;;5.00;1.88;;;;;;;20.25;47.64;102392.38;4978855;28;20045;-59
2023/10/04 03:56:43;;;;;;;4.18;1.25;;;;;;;20.24;47.29;102390.66;4994471;28;20050;-60
2023/10/04 03:59:09;;;;;;;9.32;1.05;;;;;;;20.25;48.31;102386.06;4978201;28;20038;-59
2023/10/04 04:01:37;;;;;;;4.53;1.15;;;;;;;20.22;47.24;102389.94;4995486;28;20034;-60
2023/10/04 04:04:03;;;;;;;10.38;0.98;;;;;;;20.24;47.58;102392.47;4994599;28;20371;-59
2023/10/04 04:06:29;;;;;;;5.95;1.92;;;;;;;20.21;47.91;102380.03;4994478;28;20092;-62
2023/10/04 04:08:56;;;;;;;5.43;1.15;;;;;;;20.22;47.77;102379.03;4979157;28;20057;-60
2023/10/04 04:11:22;;;;;;;11.38;1.95;;;;;;;20.20;47.68;102383.78;4994449;28;20022;-59
2023/10/04 04:13:48;;;;;;;6.10;1.52;;;;;;;20.18;47.91;102380.34;4994353;28;20038;-60
2023/10/04 04:16:17;;;;;;;3.45;1.05;;;;;;;20.17;47.52;102380.50;4994181;28;20053;-59
2023/10/04 04:18:42;;;;;;;3.85;1.20;;;;;;;20.15;47.33;102374.38;4994567;28;20014;-59
2023/10/04 04:21:08;;;;;;;7.35;1.15;;;;;;;20.13;47.94;102373.66;4978086;28;20030;-59
2023/10/04 04:23:34;;;;;;;8.18;1.20;;;;;;;20.10;47.72;102365.81;4978121;28;20036;-59
2023/10/04 04:26:06;;;;;;;7.40;1.25;;;;;;;20.08;47.80;102370.53;4977825;28;20409;-59
2023/10/04 04:28:36;;;;;;;6.38;1.15;;;;;;;20.05;48.06;102371.72;4995127;28;20026;-59
2023/10/04 04:31:05;;;;;;;11.80;1.53;;;;;;;20.01;47.78;102364.88;4977489;28;20087;-60
2023/10/04 04:33:31;;;;;;;6.75;1.63;;;;;;;19.98;47.56;102372.47;4972313;28;20034;-59
2023/10/04 04:36:15;;;;;;;2.92;1.00;;;;;;;19.95;47.88;102368.19;4993939;28;20387;-59
2023/10/04 04:38:41;;;;;;;7.38;1.83;;;;;;;19.93;47.40;102364.78;4994391;28;20125;-59
2023/10/04 04:41:12;;;;;;;7.68;2.45;;;;;;;19.89;47.87;102360.66;4994855;28;20526;-59
2023/10/04 04:43:38;;;;;;;12.27;2.15;;;;;;;19.89;47.54;102365.22;4962707;28;20116;-60
2023/10/04 04:46:12;;;;;;;4.60;1.83;;;;;;;19.88;48.03;102358.91;4977329;28;20117;-59
2023/10/04 04:48:37;;;;;;;8.63;1.48;;;;;;;19.83;48.01;102358.53;4978112;28;20161;-59
2023/10/04 04:51:25;;;;;;;7.03;1.00;;;;;;;19.83;48.11;102363.97;4993342;28;20117;-60
2023/10/04 04:53:53;;;;;;;6.93;1.23;;;;;;;19.82;47.47;102366.84;4993405;28;20041;-59
2023/10/04 04:56:21;;;;;;;10.65;1.73;;;;;;;19.79;47.72;102359.84;4993398;28;20088;-59
2023/10/04 04:58:47;;;;;;;7.78;2.85;;;;;;;19.73;47.87;102353.16;4977807;28;20088;-59
2023/10/04 05:01:13;;;;;;;9.27;1.38;;;;;;;19.71;48.09;102348.84;4992477;28;20109;-64
2023/10/04 05:03:43;;;;;;;11.50;1.63;;;;;;;19.69;48.20;102361.75;4977652;28;20405;-59
2023/10/04 05:06:13;;;;;;;11.73;1.55;;;;;;;19.67;48.13;102359.19;4994570;28;20502;-59
2023/10/04 05:08:40;;;;;;;4.32;2.17;;;;;;;19.66;48.19;102362.06;4993659;28;20038;-60
2023/10/04 05:11:06;;;;;;;8.30;2.35;;;;;;;19.66;47.90;102356.63;4961353;28;20518;-59
2023/10/04 05:13:32;;;;;;;11.10;1.45;;;;;;;19.66;48.42;102362.06;4993266;28;20093;-59
2023/10/04 05:15:59;;;;;;;7.18;1.40;;;;;;;19.65;48.38;102360.34;4977443;28;20034;-60
2023/10/04 05:18:26;;;;;;;4.82;1.50;;;;;;;19.67;48.09;102369.22;4993840;28;20113;-59
2023/10/04 05:20:55;;;;;;;10.25;1.88;;;;;;;19.65;48.07;102369.34;4993972;28;20038;-60
2023/10/04 05:23:24;;;;;;;5.40;1.63;;;;;;;19.63;47.92;102374.09;4993880;28;20030;-59
2023/10/04 05:25:51;;;;;;;3.97;1.20;;;;;;;19.60;48.22;102365.38;4961371;28;20034;-59
2023/10/04 05:28:16;;;;;;;3.30;1.60;;;;;;;19.61;47.63;102369.81;4995304;28;20030;-59
2023/10/04 05:30:44;;;;;;;7.95;1.63;;;;;;;19.60;48.06;102370.81;4993456;28;20033;-59
2023/10/04 05:33:11;;;;;;;10.88;2.03;;;;;;;19.56;48.45;102375.72;4993702;28;20044;-58
2023/10/04 05:35:36;;;;;;;11.48;1.38;;;;;;;19.58;47.81;102394.56;4993497;28;20039;-59
2023/10/04 05:38:11;;;;;;;8.00;1.65;;;;;;;19.58;48.39;102397.28;4993815;28;20482;-58
2023/10/04 05:40:43;;;;;;;9.43;1.27;;;;;;;19.57;48.29;102396.44;4977489;28;20565;-58
2023/10/04 05:43:09;;;;;;;8.32;1.73;;;;;;;19.55;48.38;102403.88;4978094;28;20050;-59
2023/10/04 05:45:36;;;;;;;7.38;1.67;;;;;;;19.58;48.66;102403.59;4977210;28;20080;-58
2023/10/04 05:48:04;;;;;;;6.97;1.45;;;;;;;19.59;47.99;102415.31;4993732;28;20398;-58
2023/10/04 05:50:32;;;;;;;6.45;1.58;;;;;;;19.60;48.36;102419.75;4993045;28;20088;-58
2023/10/04 05:53:00;;;;;;;9.52;1.80;;;;;;;19.57;47.96;102411.91;4976883;28;20057;-58
2023/10/04 05:55:26;;;;;;;7.22;1.75;;;;;;;19.58;47.88;102419.03;4992747;28;20529;-58
2023/10/04 05:57:52;;;;;;;11.30;2.40;;;;;;;19.57;47.57;102418.19;4992621;28;20034;-58
2023/10/04 06:00:27;;;;;;;5.72;2.90;;;;;;;19.55;48.18;102419.34;4992481;28;20022;-59
2023/10/04 06:03:06;;;;;;;3.95;1.50;;;;;;;19.56;48.06;102421.06;4993508;28;20042;-59
2023/10/04 06:05:34;;;;;;;9.00;1.30;;;;;;;19.56;48.12;102421.91;4992319;28;20494;-59
2023/10/04 06:08:03;;;;;;;6.45;1.88;;;;;;;19.59;47.99;102418.06;4973246;28;20111;-59
2023/10/04 06:10:28;;;;;;;5.50;1.23;;;;;;;19.63;48.31;102416.72;4957258;28;20507;-59
2023/10/04 06:12:55;;;;;;;7.75;1.50;;;;;;;19.68;48.37;102419.88;4972533;28;20097;-59
2023/10/04 06:15:24;;;;;;;7.13;1.55;;;;;;;19.71;47.95;102425.00;4972862;28;20118;-60
2023/10/04 06:17:50;;;;;;;7.15;1.10;;;;;;;19.78;48.26;102417.97;4973174;28;20070;-58
2023/10/04 06:22:55;;;;;;;4.88;1.67;;;;;;;19.91;47.83;102426.63;4972961;28;20039;-59
2023/10/04 06:25:21;;;;;;;6.00;1.50;;;;;;;19.95;47.64;102433.50;4972259;28;20507;-59
2023/10/04 06:27:51;;;;;;;9.02;2.17;;;;;;;19.98;47.77;102438.63;4973044;28;20125;-59
2023/10/04 06:30:21;;;;;;;3.85;1.27;;;;;;;20.01;47.65;102438.34;4972885;28;20521;-60
2023/10/04 06:32:47;;;;;;;4.97;1.58;;;;;;;20.05;47.76;102428.84;4973988;28;20047;-59
2023/10/04 06:35:13;;;;;;;9.35;1.95;;;;;;;20.15;47.36;102436.97;4972821;28;20114;-59
2023/10/04 06:37:39;;;;;;;4.93;1.10;;;;;;;20.24;47.44;102434.19;4973048;28;20122;-59
2023/10/04 06:40:14;;;;;;;11.50;1.83;;;;;;;20.32;47.30;102434.28;4974072;28;20125;-59
2023/10/04 06:42:40;;;;;;;6.90;1.45;;;;;;;20.43;47.11;102432.38;4972724;28;20458;-60
2023/10/04 06:45:06;;;;;;;4.95;1.30;;;;;;;20.54;47.92;102432.16;4972989;28;20126;-59
2023/10/04 06:47:34;;;;;;;4.50;1.25;;;;;;;20.61;47.33;102441.41;4972562;28;20039;-59
2023/10/04 06:50:00;;;;;;;9.63;1.80;;;;;;;20.72;46.56;102446.59;4972589;28;20066;-59
2023/10/04 06:52:26;;;;;;;2.33;1.00;;;;;;;20.81;47.06;102451.13;4973330;28;20057;-59
2023/10/04 06:54:51;;;;;;;4.85;1.08;;;;;;;20.89;46.79;102456.66;4977529;28;20114;-59
2023/10/04 06:57:18;;;;;;;8.43;1.58;;;;;;;21.02;47.70;102470.72;4976257;28;20486;-60
2023/10/04 06:59:44;;;;;;;7.47;1.42;;;;;;;21.14;46.44;102483.13;4976254;28;20043;-60
2023/10/04 07:02:10;;;;;;;3.42;1.25;;;;;;;21.26;46.83;102470.97;4977279;28;20495;-59
2023/10/04 07:04:35;;;;;;;6.13;1.40;;;;;;;21.42;47.12;102482.00;4944041;28;20058;-60
2023/10/04 07:07:01;;;;;;;7.15;1.42;;;;;;;21.55;46.21;102475.28;4975961;28;20035;-59
2023/10/04 07:09:27;;;;;;;7.10;1.50;;;;;;;21.66;46.59;102477.72;4977421;28;20065;-59
2023/10/04 07:11:53;;;;;;;12.40;1.75;;;;;;;21.79;45.88;102478.13;4975600;28;20036;-59
2023/10/04 07:14:19;;;;;;;5.78;1.40;;;;;;;21.91;46.47;102476.88;4975820;28;20518;-60
2023/10/04 07:16:45;;;;;;;6.25;1.38;;;;;;;22.04;46.47;102478.16;4991940;28;20031;-59
2023/10/04 07:19:11;;;;;;;6.28;1.27;;;;;;;22.17;45.95;102483.13;4976971;28;20035;-60
2023/10/04 07:21:37;;;;;;;6.28;2.25;;;;;;;22.30;46.40;102490.88;4959850;28;20034;-60
2023/10/04 07:24:02;;;;;;;3.65;1.48;;;;;;;22.43;45.51;102492.13;4976835;28;20034;-60
2023/10/04 07:26:34;;;;;;;9.77;2.05;;;;;;;22.59;45.28;102497.63;4976659;28;20031;-60
2023/10/04 07:28:59;;;;;;;3.63;1.40;;;;;;;22.77;45.23;102507.59;4975702;28;20035;-60
2023/10/04 07:31:25;;;;;;;3.90;1.50;;;;;;;22.91;45.18;102509.66;4976723;28;20108;-59
2023/10/04 07:33:50;;;;;;;6.80;1.48;;;;;;;23.05;44.73;102506.28;4975309;28;20554;-59
2023/10/04 07:36:16;;;;;;;9.02;1.52;;;;;;;23.20;44.69;102505.41;4959231;28;20561;-60
2023/10/04 07:38:42;;;;;;;6.45;1.50;;;;;;;23.39;44.91;102509.75;4975343;28;20406;-60
2023/10/04 07:41:07;;;;;;;11.00;1.63;;;;;;;23.52;44.79;102510.06;4975410;28;20039;-59
2023/10/04 07:43:35;;;;;;;10.27;1.17;;;;;;;23.69;44.88;102506.28;4975170;28;20121;-59
2023/10/04 07:46:01;;;;;;;3.70;1.30;;;;;;;23.84;43.92;102497.34;4975354;28;20562;-60
2023/10/04 07:48:27;;;;;;;9.15;1.30;;;;;;;23.95;44.25;102499.72;4975120;28;20054;-60
2023/10/04 07:50:52;;;;;;;11.00;2.33;;;;;;;24.08;44.09;102500.00;4975196;28;20039;-61
2023/10/04 07:53:21;;;;;;;7.20;1.42;;;;;;;24.18;43.78;102500.66;4975283;28;20529;-59
2023/10/04 07:55:49;;;;;;;8.38;1.52;;;;;;;24.27;43.50;102499.59;4959683;28;20125;-60
2023/10/04 07:58:14;;;;;;;8.35;1.77;;;;;;;24.39;42.90;102497.34;4959008;28;20065;-62
2023/10/04 08:00:41;;;;;;;8.00;1.60;;;;;;;24.48;43.20;102486.16;4975093;28;20058;-61
2023/10/04 08:03:07;;;;;;;6.20;1.95;;;;;;;24.58;43.37;102492.25;4975784;28;20495;-59
2023/10/04 08:05:33;;;;;;;11.48;1.65;;;;;;;24.70;42.63;102490.81;4974902;28;20103;-61
2023/10/04 08:08:00;;;;;;;7.50;1.55;;;;;;;24.80;42.89;102485.13;4974787;28;20414;-62
2023/10/04 08:10:29;;;;;;;8.88;1.50;;;;;;;25.03;42.48;102490.63;4943042;28;20077;-61
2023/10/04 08:12:55;;;;;;;7.68;1.30;;;;;;;25.24;42.67;102496.25;4974414;28;20038;-61
2023/10/04 08:15:23;;;;;;;9.38;1.92;;;;;;;25.39;42.67;102486.19;4975219;28;20035;-61
2023/10/04 08:17:48;;;;;;;4.05;1.45;;;;;;;25.65;42.22;102496.78;4994230;28;20018;-65
2023/10/04 08:20:15;;;;;;;5.30;1.38;;;;;;;25.86;41.67;102500.47;4977890;28;20030;-64
2023/10/04 08:22:41;;;;;;;3.80;1.20;;;;;;;26.07;41.76;102493.38;4994482;28;20052;-66
2023/10/04 08:25:08;;;;;;;5.75;1.45;;;;;;;26.24;41.38;102490.28;4961211;28;20030;-65
2023/10/04 08:27:34;;;;;;;7.05;1.85;;;;;;;26.43;40.97;102492.44;4978181;28;20029;-64
2023/10/04 08:30:03;;;;;;;8.57;1.70;;;;;;;26.61;40.58;102491.97;4994936;28;20386;-65
2023/10/04 08:32:30;;;;;;;7.03;1.70;;;;;;;26.75;40.32;102488.34;4993601;28;20026;-65
2023/10/04 08:34:55;;;;;;;11.68;1.60;;;;;;;26.82;41.20;102492.06;4977439;28;20045;-65
2023/10/04 08:37:21;;;;;;;3.95;1.60;;;;;;;26.96;40.10;102495.78;4994826;28;20038;-65
2023/10/04 08:39:47;;;;;;;5.00;1.45;;;;;;;27.04;40.15;102488.25;4993441;28;20038;-65
2023/10/04 08:42:12;;;;;;;5.15;1.85;;;;;;;27.17;40.30;102506.78;4993293;28;20045;-66
2023/10/04 08:44:38;;;;;;;5.60;0.98;;;;;;;27.16;40.77;102499.59;4993230;28;20044;-66
2023/10/04 08:47:05;;;;;;;5.72;2.35;;;;;;;27.26;39.91;102515.75;4977245;28;20041;-66
2023/10/04 08:49:42;;;;;;;7.20;1.33;;;;;;;27.33;39.40;102513.94;4993191;28;20042;-67
2023/10/04 08:52:14;;;;;;;10.63;2.15;;;;;;;27.45;39.70;102509.59;4992938;28;20061;-65
2023/10/04 08:54:40;;;;;;;10.02;1.85;;;;;;;27.63;39.52;102507.22;4977062;28;20093;-66
2023/10/04 08:57:14;;;;;;;7.45;1.33;;;;;;;27.83;39.40;102502.72;4977009;28;20125;-64
2023/10/04 08:59:40;;;;;;;9.30;2.58;;;;;;;27.98;39.63;102508.09;4993199;28;20039;-66
2023/10/04 09:02:08;;;;;;;8.93;1.80;;;;;;;28.11;39.21;102509.03;4993203;28;20569;-69
2023/10/04 09:04:35;;;;;;;10.27;2.03;;;;;;;28.26;39.47;102507.00;4976462;28;20042;-68
2023/10/04 09:07:02;;;;;;;4.22;1.77;;;;;;;28.48;38.59;102501.34;4993304;28;20402;-69
2023/10/04 09:09:31;;;;;;;9.00;2.75;;;;;;;28.35;38.76;102501.31;4992844;28;20030;-68
2023/10/04 09:11:57;;;;;;;7.90;1.70;;;;;;;28.60;38.91;102506.09;4992669;28;20050;-67
2023/10/04 09:14:22;;;;;;;6.20;1.55;;;;;;;28.79;38.68;102502.56;4992775;28;20061;-68
2023/10/04 09:17:03;;;;;;;4.68;1.30;;;;;;;29.12;37.57;102505.38;4992342;28;20042;-67
2023/10/04 09:19:30;;;;;;;7.40;1.67;;;;;;;29.44;37.78;102510.13;4992721;28;20494;-68
2023/10/04 09:22:03;;;;;;;6.60;1.45;;;;;;;29.77;37.05;102499.03;4992494;28;20054;-68
2023/10/04 09:24:28;;;;;;;9.50;1.75;;;;;;;30.36;36.29;102496.13;5009114;28;20388;-69
2023/10/04 09:26:54;;;;;;;10.45;2.00;;;;;;;31.40;34.81;102501.25;4992777;28;20044;-68
2023/10/04 09:29:37;;;;;;;7.47;1.88;;;;;;;30.99;35.15;102501.81;4992765;28;20113;-67
2023/10/04 09:32:03;;;;;;;;;;;;;;;30.85;36.13;102500.97;4992995;28;20085;-69
2023/10/04 09:34:29;;;;;;;9.07;2.30;;;;;;;30.66;36.36;102501.09;4992574;28;19953;-67
2023/10/04 09:36:55;;;;;;;7.90;1.88;;;;;;;30.45;36.43;102497.59;4992816;28;20061;-69
2023/10/04 09:39:27;;;;;;;7.53;2.03;;;;;;;30.22;36.32;102502.78;4994164;28;20026;-68
2023/10/04 09:41:54;;;;;;;5.38;1.50;;;;;;;30.09;36.25;102494.53;4976787;28;20390;-68
2023/10/04 09:44:29;;;;;;;3.80;1.55;;;;;;;30.02;36.58;102497.31;4960149;28;20053;-68
2023/10/04 09:47:00;;;;;;;4.75;1.77;;;;;;;29.92;36.12;102485.84;4976264;28;20044;-67
2023/10/04 09:49:33;;;;;;;7.65;1.85;;;;;;;29.99;36.02;102491.34;4976515;28;20062;-68
2023/10/04 09:52:00;;;;;;;9.50;2.17;;;;;;;29.93;36.03;102484.78;4976279;28;20039;-66
2023/10/04 09:54:30;;;;;;;4.57;1.92;;;;;;;29.89;35.68;102479.91;4976279;28;20053;-70
2023/10/04 09:56:56;;;;;;;7.95;1.98;;;;;;;30.13;35.86;102475.56;4992400;28;20034;-69
2023/10/04 09:59:23;;;;;;;7.55;2.42;;;;;;;30.41;35.20;102479.75;4976259;28;20026;-69
2023/10/04 10:01:55;;;;;;;9.30;1.95;;;;;;;30.50;34.87;102477.56;4993479;28;20025;-70
2023/10/04 10:04:33;;;;;;;4.78;1.77;;;;;;;30.55;34.67;102484.13;4993485;28;20042;-69
2023/10/04 10:07:17;;;;;;;5.47;2.00;;;;;;;30.77;34.72;102475.47;4960451;28;20498;-69
2023/10/04 10:09:57;;;;;;;6.22;1.52;;;;;;;31.04;34.26;102479.81;4976317;28;20049;-69
2023/10/04 10:12:23;;;;;;;6.97;2.75;;;;;;;31.16;34.21;102475.25;4992232;28;20050;-69
2023/10/04 10:14:50;;;;;;;4.75;2.00;;;;;;;31.10;34.44;102478.94;4975899;28;20038;-70
2023/10/04 10:17:18;;;;;;;5.57;1.92;;;;;;;31.11;34.09;102486.16;4975963;28;20477;-70
2023/10/04 10:19:45;;;;;;;10.60;2.22;;;;;;;31.07;33.74;102482.16;4992144;28;20044;-68
2023/10/04 10:22:11;;;;;;;5.65;1.63;;;;;;;30.96;34.12;102482.88;4975976;28;20030;-68
2023/10/04 10:24:45;;;;;;;6.55;1.98;;;;;;;30.67;34.62;102464.06;4993288;28;20439;-67
2023/10/04 10:27:13;;;;;;;12.13;1.85;;;;;;;30.59;34.38;102473.47;4994368;28;20038;-66
2023/10/04 10:29:40;;;;;;;12.02;2.30;;;;;;;30.43;34.31;102477.59;4996499;28;20474;-66
2023/10/04 10:32:22;;;;;;;6.13;2.28;;;;;;;30.31;34.72;102473.81;4996632;28;20061;-67
2023/10/04 10:35:04;;;;;;;10.88;2.80;;;;;;;30.35;34.31;102475.03;4996904;28;20073;-69
2023/10/04 10:37:35;;;;;;;17.30;3.20;;;;;;;30.37;34.39;102466.59;4980906;28;20041;-65
2023/10/04 10:40:08;;;;;;;7.68;1.92;;;;;;;30.31;34.19;102471.03;4995855;28;20102;-66
2023/10/04 10:43:06;;;;;;;8.93;2.83;;;;;;;30.17;34.32;102472.16;4996054;28;20049;-64
2023/10/04 10:45:31;;;;;;;6.93;2.70;;;;;;;29.88;34.24;102473.53;4991761;28;20121;-65
2023/10/04 10:47:58;;;;;;;9.98;2.53;;;;;;;29.71;34.20;102471.41;4979703;28;20098;-65
2023/10/04 10:50:38;;;;;;;6.22;2.35;;;;;;;29.52;34.25;102477.81;4995515;28;20390;-63
2023/10/04 10:53:05;;;;;;;9.48;2.55;;;;;;;29.34;34.61;102470.19;4979177;28;20418;-63
2023/10/04 10:55:32;;;;;;;6.93;2.30;;;;;;;29.33;34.31;102463.81;4995580;28;20043;-61
2023/10/04 10:57:57;;;;;;;11.80;2.17;;;;;;;29.40;34.55;102477.59;4996719;28;20026;-63
2023/10/04 11:00:23;;;;;;;7.50;2.03;;;;;;;29.21;34.91;102476.50;4995368;28;20402;-63
2023/10/04 11:02:53;;;;;;;6.55;2.33;;;;;;;29.20;34.31;102491.38;4994395;28;20030;-62
2023/10/04 11:05:20;;;;;;;8.60;3.00;;;;;;;29.34;34.25;102487.59;4995470;28;20133;-63
2023/10/04 11:07:47;;;;;;;7.93;2.03;;;;;;;29.44;34.34;102493.53;4963569;28;20514;-63
2023/10/04 11:10:17;;;;;;;11.02;2.35;;;;;;;29.57;33.80;102486.28;4996494;28;20099;-63
2023/10/04 11:12:44;;;;;;;10.90;2.58;;;;;;;29.68;34.09;102488.41;4979544;28;20030;-64
2023/10/04 11:15:10;;;;;;;11.80;2.45;;;;;;;29.74;33.68;102484.78;4979223;28;20030;-64
2023/10/04 11:17:37;;;;;;;10.93;2.95;;;;;;;29.75;34.18;102483.72;4995030;28;20069;-64
2023/10/04 11:20:10;;;;;;;5.60;2.33;;;;;;;29.69;34.22;102484.59;4996678;28;20034;-64
2023/10/04 11:22:40;;;;;;;8.32;2.58;;;;;;;29.65;33.68;102488.84;4979291;28;20034;-63
2023/10/04 11:25:07;;;;;;;8.40;1.73;;;;;;;29.62;33.94;102479.06;4995087;28;20125;-63
2023/10/04 11:27:33;;;;;;;8.55;2.33;;;;;;;29.55;34.11;102471.84;4978920;28;20034;-64
2023/10/04 11:29:59;;;;;;;10.35;2.40;;;;;;;29.54;34.11;102470.16;4978329;28;20043;-64